createdAt,value
2019-05-01T00:04:50.160Z,12.25
2019-05-01T00:10:35.239Z,12.23
2019-05-01T00:16:35.521Z,12.05
2019-05-01T00:21:56.531Z,12.10
2019-05-01T00:27:29.668Z,12.03
2019-05-01T00:32:52.290Z,12.15
2019-05-01T00:38:17.554Z,11.98
2019-05-01T00:43:34.642Z,11.92
2019-05-01T00:49:27.099Z,11.86
2019-05-01T00:55:28.250Z,11.95
2019-05-01T01:00:51.576Z,11.80
2019-05-01T01:06:13.939Z,11.97
2019-05-01T01:11:40.632Z,11.95
2019-05-01T01:17:07.519Z,11.90
2019-05-01T01:22:25.379Z,11.96
2019-05-01T01:27:47.513Z,11.92
2019-05-01T01:33:07.960Z,11.91
2019-05-01T01:38:26.619Z,11.89
2019-05-01T01:43:56.680Z,11.70
2019-05-01T01:49:19.959Z,11.56
2019-05-01T01:54:39.402Z,11.62
2019-05-01T01:59:55.729Z,11.54
2019-05-01T02:05:27.152Z,11.54
2019-05-01T02:11:14.928Z,11.33
2019-05-01T02:16:53.098Z,11.46
2019-05-01T02:22:08.618Z,11.44
2019-05-01T02:27:32.969Z,11.26
2019-05-01T02:32:57.818Z,11.24
2019-05-01T02:38:14.366Z,11.26
2019-05-01T02:43:41.646Z,11.15
2019-05-01T02:49:30.679Z,11.11
2019-05-01T02:54:56.024Z,11.00
2019-05-01T03:00:23.376Z,10.81
2019-05-01T03:06:05.419Z,10.65
2019-05-01T03:11:21.783Z,10.49
2019-05-01T03:16:31.890Z,10.26
2019-05-01T03:21:53.868Z,10.42
2019-05-01T03:27:08.605Z,10.05
2019-05-01T03:32:20.205Z,10.15
2019-05-01T03:37:34.735Z,10.10
2019-05-01T03:42:50.187Z,10.29
2019-05-01T03:48:08.046Z,10.03
2019-05-01T03:53:26.642Z,10.04
2019-05-01T03:58:47.824Z,10.03
2019-05-01T04:04:15.466Z,9.58
2019-05-01T04:09:24.944Z,9.63
2019-05-01T04:14:53.601Z,9.59
2019-05-01T04:20:14.237Z,9.43
2019-05-01T04:25:30.293Z,9.55
2019-05-01T04:30:57.840Z,9.42
2019-05-01T04:36:11.700Z,9.70
2019-05-01T04:41:26.718Z,9.24
2019-05-01T04:46:50.043Z,9.58
2019-05-01T04:51:58.926Z,9.58
2019-05-01T04:57:08.605Z,9.76
2019-05-01T05:02:28.672Z,9.73
2019-05-01T05:07:39.014Z,9.53
2019-05-01T05:13:05.940Z,9.55
2019-05-01T05:18:17.393Z,9.61
2019-05-01T05:23:25.893Z,9.59
2019-05-01T05:28:45.602Z,9.42
2019-05-01T05:33:58.228Z,9.76
2019-05-01T05:39:44.813Z,9.73
2019-05-01T05:44:56.307Z,9.70
2019-05-01T05:50:05.167Z,9.84
2019-05-01T05:55:20.315Z,9.84
2019-05-01T06:00:45.626Z,10.03
2019-05-01T06:06:07.519Z,9.92
2019-05-01T06:11:37.487Z,10.02
2019-05-01T06:17:09.504Z,10.21
2019-05-01T06:22:40.842Z,10.25
2019-05-01T06:28:15.244Z,10.20
2019-05-01T06:33:44.338Z,10.34
2019-05-01T06:39:11.885Z,10.34
2019-05-01T06:44:59.201Z,10.50
2019-05-01T06:50:44.238Z,10.74
2019-05-01T06:55:55.583Z,10.73
2019-05-01T07:01:45.966Z,11.11
2019-05-01T07:08:10.069Z,11.37
2019-05-01T07:13:29.402Z,11.51
2019-05-01T07:19:54.693Z,11.78
2019-05-01T07:44:33.805Z,12.38
2019-05-01T07:50:04.739Z,12.71
2019-05-01T07:55:07.553Z,12.80
2019-05-01T08:00:17.257Z,12.81
2019-05-01T08:05:19.435Z,13.30
2019-05-01T08:10:25.521Z,13.50
2019-05-01T08:15:27.640Z,13.87
2019-05-01T08:20:36.304Z,14.00
2019-05-01T08:25:38.405Z,13.96
2019-05-01T08:30:58.523Z,14.33
2019-05-01T08:36:00.664Z,14.41
2019-05-01T08:41:02.947Z,14.59
2019-05-01T08:46:34.130Z,14.54
2019-05-01T08:51:36.296Z,14.92
2019-05-01T08:56:38.561Z,15.10
2019-05-01T09:01:40.620Z,15.32
2019-05-01T09:06:43.956Z,15.63
2019-05-01T09:11:46.972Z,15.63
2019-05-01T09:16:52.296Z,15.62
2019-05-01T09:21:53.661Z,15.94
2019-05-01T09:27:29.572Z,15.98
2019-05-01T09:32:29.654Z,16.16
2019-05-01T09:37:32.001Z,16.23
2019-05-01T09:42:34.188Z,16.18
2019-05-01T09:47:36.411Z,16.50
2019-05-01T09:52:59.840Z,16.41
2019-05-01T09:57:59.442Z,16.83
2019-05-01T10:03:01.603Z,16.94
2019-05-01T10:08:05.315Z,17.20
2019-05-01T10:13:07.606Z,17.27
2019-05-01T10:18:10.498Z,16.93
2019-05-01T10:23:15.077Z,17.31
2019-05-01T10:28:26.380Z,17.64
2019-05-01T10:33:40.358Z,17.76
2019-05-01T10:38:45.137Z,18.04
2019-05-01T10:43:46.910Z,18.28
2019-05-01T10:48:49.664Z,17.86
2019-05-01T10:53:52.991Z,17.90
2019-05-01T10:58:55.527Z,18.26
2019-05-01T11:03:57.780Z,18.10
2019-05-01T11:08:59.905Z,18.52
2019-05-01T11:14:02.051Z,18.63
2019-05-01T11:19:04.388Z,18.18
2019-05-01T11:24:06.486Z,18.20
2019-05-01T11:29:08.718Z,18.57
2019-05-01T11:34:36.312Z,18.55
2019-05-01T11:39:42.614Z,18.32
2019-05-01T11:44:44.755Z,18.46
2019-05-01T11:49:46.832Z,18.62
2019-05-01T11:55:07.676Z,19.04
2019-05-01T12:00:39.982Z,18.89
2019-05-01T12:12:51.880Z,18.98
2019-05-01T12:22:53.965Z,20.10
2019-05-01T12:27:57.164Z,19.76
2019-05-01T12:33:04.601Z,20.01
2019-05-01T12:38:06.723Z,19.78
2019-05-01T12:43:12.088Z,20.07
2019-05-01T12:48:21.116Z,20.34
2019-05-01T12:54:03.725Z,20.63
2019-05-01T12:59:29.874Z,20.65
2019-05-01T13:10:13.642Z,20.90
2019-05-01T13:15:31.903Z,20.79
2019-05-01T13:20:40.159Z,21.38
2019-05-01T13:25:43.217Z,20.25
2019-05-01T13:30:55.008Z,20.98
2019-05-01T13:35:57.217Z,20.66
2019-05-01T13:41:01.239Z,21.05
2019-05-01T13:46:03.694Z,21.17
2019-05-01T13:51:05.857Z,20.84
2019-05-01T13:56:08.656Z,21.48
2019-05-01T14:01:11.307Z,20.74
2019-05-01T14:06:44.305Z,20.36
2019-05-01T14:12:07.134Z,20.00
2019-05-01T14:29:00.353Z,21.07
2019-05-01T15:02:24.572Z,21.86
2019-05-01T15:08:00.190Z,22.48
2019-05-01T15:19:05.774Z,22.78
2019-05-01T15:24:09.495Z,23.53
2019-05-01T15:29:29.811Z,24.34
2019-05-01T15:34:38.981Z,24.10
2019-05-01T16:03:40.220Z,23.87
2019-05-01T16:08:53.188Z,23.47
2019-05-01T16:14:26.116Z,24.59
2019-05-01T16:19:46.972Z,24.48
2019-05-01T16:37:30.466Z,24.84
2019-05-01T16:42:37.531Z,24.67
2019-05-01T16:47:39.929Z,25.24
2019-05-01T16:52:43.745Z,24.83
2019-05-01T16:57:46.526Z,23.91
2019-05-01T17:03:20.810Z,23.11
2019-05-01T17:08:51.512Z,23.20
2019-05-01T17:13:54.168Z,22.51
2019-05-01T17:18:57.359Z,22.84
2019-05-01T17:23:59.538Z,22.64
2019-05-01T17:29:02.875Z,22.42
2019-05-01T17:34:05.019Z,21.60
2019-05-01T17:39:07.956Z,21.35
2019-05-01T17:44:10.073Z,20.89
2019-05-01T17:49:12.551Z,20.69
2019-05-01T17:54:14.783Z,20.59
2019-05-01T17:59:22.625Z,20.21
2019-05-01T18:04:56.037Z,20.08
2019-05-01T18:10:02.287Z,19.99
2019-05-01T18:15:04.840Z,19.77
2019-05-01T18:20:15.646Z,19.42
2019-05-01T18:25:28.151Z,19.34
2019-05-01T18:30:38.376Z,19.19
2019-05-01T18:35:44.855Z,18.96
2019-05-01T18:40:47.533Z,18.85
2019-05-01T18:45:51.933Z,18.71
2019-05-01T18:50:56.123Z,18.51
2019-05-01T18:56:01.331Z,18.53
2019-05-01T19:01:09.532Z,18.46
2019-05-01T19:06:09.597Z,18.19
2019-05-01T19:11:13.358Z,18.23
2019-05-01T19:16:16.825Z,17.95
2019-05-01T19:21:23.740Z,17.82
2019-05-01T19:26:26.703Z,17.60
2019-05-01T19:31:30.013Z,17.42
2019-05-01T19:36:32.382Z,17.40
2019-05-01T19:41:49.257Z,17.61
2019-05-01T19:46:50.718Z,17.40
2019-05-01T19:51:55.598Z,17.53
2019-05-01T19:56:57.757Z,17.51
2019-05-01T20:02:00.471Z,17.42
2019-05-01T20:07:02.930Z,17.28
2019-05-01T20:12:05.892Z,17.35
2019-05-01T20:17:09.932Z,17.10
2019-05-01T20:22:12.691Z,16.90
2019-05-01T20:27:14.854Z,16.55
2019-05-01T20:32:21.038Z,16.65
2019-05-01T20:38:00.076Z,16.57
2019-05-01T20:43:05.904Z,16.21
2019-05-01T20:48:08.728Z,16.22
2019-05-01T20:53:11.376Z,16.07
2019-05-01T20:58:20.400Z,16.17
2019-05-01T21:03:22.601Z,16.17
2019-05-01T21:08:44.547Z,16.14
2019-05-01T21:13:47.309Z,16.36
2019-05-01T21:18:49.530Z,16.20
2019-05-01T21:23:56.736Z,16.08
2019-05-01T21:28:57.591Z,15.89
2019-05-01T21:34:00.084Z,15.70
2019-05-01T21:39:02.204Z,15.59
2019-05-01T21:44:06.722Z,15.25
2019-05-01T21:49:09.087Z,15.40
2019-05-01T21:54:15.984Z,15.21
2019-05-01T21:59:16.846Z,15.16
2019-05-01T22:04:19.080Z,15.21
2019-05-01T22:09:22.883Z,15.02
2019-05-01T22:14:45.199Z,15.02
2019-05-01T22:19:47.675Z,14.92
2019-05-01T22:24:54.841Z,14.93
2019-05-01T22:30:12.623Z,14.94
2019-05-01T22:35:17.355Z,14.66
2019-05-01T22:40:28.332Z,14.72
2019-05-01T22:45:30.857Z,14.50
2019-05-01T22:50:33.455Z,14.48
2019-05-01T22:55:35.728Z,14.54
2019-05-01T23:00:52.332Z,14.40
2019-05-01T23:05:55.014Z,14.42
2019-05-01T23:10:57.604Z,14.34
2019-05-01T23:16:00.910Z,14.34
2019-05-01T23:21:03.916Z,14.29
2019-05-01T23:26:06.103Z,14.17
2019-05-01T23:31:08.435Z,14.12
2019-05-01T23:36:23.008Z,14.12
2019-05-01T23:41:14.680Z,14.22
2019-05-01T23:46:16.840Z,14.18
2019-05-01T23:51:19.014Z,13.88
2019-05-01T23:56:21.738Z,14.11
